Time;durP1;ratioP1;P1;durP2;ratioP2;P2;SDS_P1;SDS_P2;PMS_P1;PMS_P2;Temp;Humidity;BMP_temperature;BMP_pressure;BME280_temperature;BME280_humidity;BME280_pressure;Samples;Min_cycle;Max_cycle;Signal;HPM_P1;HPM_P2
2022/07/26 00:01:04;;;;;;;0.00;0.00;;;21.60;99.90;226.50;231333.00;;;;5038327;28;20215;-75
2022/07/26 00:03:32;;;;;;;0.00;0.00;;;21.60;99.90;226.50;231333.00;;;;5025487;28;20206;-76
2022/07/26 00:06:00;;;;;;;0.00;0.00;;;21.70;99.90;226.50;231333.00;;;;5027052;28;20199;-76
2022/07/26 00:08:29;;;;;;;0.00;0.00;;;21.80;99.90;226.50;231333.00;;;;5042250;28;20287;-75
2022/07/26 00:10:58;;;;;;;0.00;0.00;;;21.90;99.90;226.50;231333.00;;;;5041606;28;20230;-75
2022/07/26 00:13:27;;;;;;;0.00;0.00;;;22.10;99.90;226.50;231333.00;;;;5033503;28;20191;-76
2022/07/26 00:15:57;;;;;;;0.00;0.00;;;22.20;99.90;226.50;231333.00;;;;5033111;28;20218;-76
2022/07/26 00:18:26;;;;;;;0.00;0.00;;;22.20;99.90;226.50;231333.00;;;;5032505;28;20199;-76
2022/07/26 00:20:54;;;;;;;0.00;0.00;;;22.20;99.90;226.50;231333.00;;;;5033178;28;20261;-75
2022/07/26 00:23:22;;;;;;;0.00;0.00;;;22.30;99.90;226.50;231333.00;;;;5032921;28;20195;-77
2022/07/26 00:25:52;;;;;;;0.00;0.00;;;22.20;99.90;226.50;231333.00;;;;5032782;28;20214;-76
2022/07/26 00:28:20;;;;;;;0.00;0.00;;;22.20;99.90;226.50;231333.00;;;;5032455;28;20674;-76
2022/07/26 00:30:48;;;;;;;0.00;0.00;;;22.20;99.90;226.50;231333.00;;;;5031211;28;20698;-76
2022/07/26 00:33:16;;;;;;;0.00;0.00;;;22.10;99.90;226.50;231333.00;;;;5012976;28;20203;-76
2022/07/26 00:35:44;;;;;;;0.00;0.00;;;22.00;99.90;226.50;231333.00;;;;5018380;28;20200;-76
2022/07/26 00:38:12;;;;;;;0.00;0.00;;;22.00;99.90;226.50;231333.00;;;;5030047;28;20203;-74
2022/07/26 00:40:40;;;;;;;0.00;0.00;;;21.90;99.90;226.50;231333.00;;;;5022685;28;20251;-75
2022/07/26 00:43:09;;;;;;;0.00;0.00;;;21.90;99.90;226.50;231333.00;;;;5021052;28;20191;-75
2022/07/26 00:45:37;;;;;;;0.00;0.00;;;21.90;99.90;226.50;231333.00;;;;5032191;28;20287;-74
2022/07/26 00:48:06;;;;;;;0.00;0.00;;;21.80;99.90;226.50;231333.00;;;;5032115;28;20600;-75
2022/07/26 00:50:35;;;;;;;0.00;0.00;;;21.80;99.90;226.50;231333.00;;;;5032681;28;20242;-73
2022/07/26 00:53:03;;;;;;;0.00;0.00;;;21.90;99.90;226.50;231333.00;;;;5032651;28;20195;-73
2022/07/26 00:55:32;;;;;;;0.00;0.00;;;22.00;99.90;226.50;231333.00;;;;5031816;28;20195;-73
2022/07/26 00:58:01;;;;;;;0.00;0.00;;;22.00;99.90;226.50;231333.00;;;;5032070;28;20210;-73
2022/07/26 01:00:30;;;;;;;0.00;0.00;;;22.10;99.90;226.50;231333.00;;;;5032270;28;20273;-73
2022/07/26 01:03:00;;;;;;;0.00;0.00;;;22.10;99.90;226.50;231333.00;;;;5028203;28;20564;-74
2022/07/26 01:05:28;;;;;;;0.00;0.00;;;22.10;99.90;226.50;231333.00;;;;5024935;28;20218;-74
2022/07/26 01:07:57;;;;;;;0.00;0.00;;;22.00;99.90;226.50;231333.00;;;;5031724;28;20195;-74
2022/07/26 01:10:26;;;;;;;0.00;0.00;;;22.00;99.90;226.50;231333.00;;;;5031573;28;20761;-74
2022/07/26 01:12:54;;;;;;;0.00;0.00;;;22.00;99.90;226.50;231333.00;;;;5031844;28;20226;-75
2022/07/26 01:15:22;;;;;;;0.00;0.00;;;22.00;99.90;226.50;231333.00;;;;5021571;28;20206;-75
2022/07/26 01:17:51;;;;;;;0.00;0.00;;;22.10;99.90;226.50;231333.00;;;;5032045;28;20187;-74
2022/07/26 01:20:19;;;;;;;0.00;0.00;;;22.00;99.90;226.50;231333.00;;;;5031727;28;20207;-75
2022/07/26 01:22:49;;;;;;;0.00;0.00;;;22.10;99.90;226.50;231333.00;;;;5032115;28;20566;-74
2022/07/26 01:25:17;;;;;;;0.00;0.00;;;22.00;99.90;226.50;231333.00;;;;5031074;28;20187;-75
2022/07/26 01:27:45;;;;;;;0.00;0.00;;;22.00;99.90;226.50;231333.00;;;;5031951;28;20202;-75
2022/07/26 01:30:14;;;;;;;0.00;0.00;;;22.10;99.90;226.50;231333.00;;;;5036449;28;20269;-74
2022/07/26 01:32:42;;;;;;;0.00;0.00;;;22.10;99.90;226.50;231333.00;;;;5031909;28;20195;-75
2022/07/26 01:35:10;;;;;;;0.00;0.00;;;22.10;99.90;226.50;231333.00;;;;5031392;28;20210;-75
2022/07/26 01:37:38;;;;;;;0.00;0.00;;;22.20;99.90;226.50;231333.00;;;;5031685;28;20250;-74
2022/07/26 01:40:10;;;;;;;0.00;0.00;;;22.40;99.90;226.50;231333.00;;;;5031308;28;20215;-74
2022/07/26 01:42:39;;;;;;;0.00;0.00;;;22.40;99.90;226.50;231333.00;;;;5031695;28;20195;-74
2022/07/26 01:45:09;;;;;;;0.00;0.00;;;22.50;99.90;226.50;231333.00;;;;5031720;28;20202;-73
2022/07/26 01:47:37;;;;;;;0.00;0.00;;;22.50;99.90;226.50;231333.00;;;;5032273;28;20205;-73
2022/07/26 01:50:08;;;;;;;0.00;0.00;;;22.50;99.90;226.50;231333.00;;;;5032128;28;20223;-73
2022/07/26 01:52:37;;;;;;;0.00;0.00;;;22.40;99.90;226.50;231333.00;;;;5031976;28;20593;-74
2022/07/26 01:55:07;;;;;;;0.00;0.00;;;22.50;99.90;226.50;231333.00;;;;5030889;28;20693;-74
2022/07/26 01:57:35;;;;;;;0.00;0.00;;;22.50;99.90;226.50;231333.00;;;;5011714;28;20184;-73
2022/07/26 02:00:06;;;;;;;0.00;0.00;;;22.40;99.90;226.50;231333.00;;;;5013716;28;20222;-74
2022/07/26 02:02:34;;;;;;;0.00;0.00;;;22.20;99.90;226.50;231333.00;;;;5031959;28;20195;-74
2022/07/26 02:05:02;;;;;;;0.00;0.00;;;22.10;99.90;226.50;231333.00;;;;5031440;28;20183;-75
2022/07/26 02:07:36;;;;;;;0.00;0.00;;;22.10;99.90;21.20;97022.00;;;;5033334;28;20866;-74
2022/07/26 02:10:08;;;;;;;0.00;0.00;;;21.80;99.90;21.30;97023.00;;;;5035207;28;20241;-74
2022/07/26 02:12:39;;;;;;;0.00;0.00;;;21.90;99.90;21.00;97021.00;;;;5035541;28;20253;-74
2022/07/26 02:15:09;;;;;;;0.00;0.00;;;21.70;99.90;20.80;97025.00;;;;5035196;28;20199;-75
2022/07/26 02:17:37;;;;;;;0.00;0.00;;;21.60;99.90;20.90;97021.00;;;;5035370;28;20209;-74
2022/07/26 02:20:08;;;;;;;0.00;0.00;;;21.60;99.90;21.00;97022.00;;;;5035200;28;20218;-74
2022/07/26 02:22:36;;;;;;;0.00;0.00;;;21.60;99.90;20.80;97024.00;;;;5035462;28;20206;-74
2022/07/26 02:25:05;;;;;;;0.00;0.00;;;21.40;99.90;21.00;97029.00;;;;5035100;28;20191;-74
2022/07/26 02:27:34;;;;;;;0.00;0.00;;;21.50;99.90;20.90;97021.00;;;;5028940;28;20202;-74
2022/07/26 02:30:02;;;;;;;0.00;0.00;;;21.50;99.90;20.90;97017.00;;;;5034673;28;20725;-74
2022/07/26 02:32:30;;;;;;;0.00;0.00;;;21.50;99.90;21.00;97023.00;;;;5034282;28;20218;-74
2022/07/26 02:34:58;;;;;;;0.00;0.00;;;21.60;99.90;21.00;97020.00;;;;5035066;28;20199;-75
2022/07/26 02:37:26;;;;;;;0.00;0.00;;;21.50;99.90;20.70;97012.00;;;;5034634;28;20198;-74
2022/07/26 02:39:54;;;;;;;0.00;0.00;;;21.40;99.90;20.80;97022.00;;;;5034722;28;20226;-74
2022/07/26 02:42:22;;;;;;;0.00;0.00;;;21.40;99.90;20.70;97004.00;;;;5034925;28;20203;-73
2022/07/26 02:44:52;;;;;;;0.00;0.00;;;21.40;99.90;20.70;97009.00;;;;5034688;28;20600;-74
2022/07/26 02:47:20;;;;;;;0.00;0.00;;;21.40;99.90;20.80;97014.00;;;;5034540;28;20191;-74
2022/07/26 02:49:48;;;;;;;0.00;0.00;;;21.40;99.90;20.90;97012.00;;;;5034616;28;20225;-74
2022/07/26 02:52:17;;;;;;;0.00;0.00;;;21.50;99.90;20.90;97021.00;;;;5034484;28;20215;-74
2022/07/26 02:54:45;;;;;;;0.00;0.00;;;21.60;99.90;20.90;97019.00;;;;5034671;28;20206;-74
2022/07/26 02:57:13;;;;;;;0.00;0.00;;;21.60;99.90;21.00;97026.00;;;;5033897;28;20195;-74
2022/07/26 02:59:41;;;;;;;0.00;0.00;;;21.60;99.90;20.90;97016.00;;;;5034519;28;20748;-74
2022/07/26 03:02:10;;;;;;;0.00;0.00;;;21.50;99.90;20.90;97021.00;;;;5034222;28;20207;-74
2022/07/26 03:04:38;;;;;;;0.00;0.00;;;21.50;99.90;20.90;97018.00;;;;5031792;28;20199;-74
2022/07/26 03:07:06;;;;;;;0.00;0.00;;;21.60;99.90;20.80;97012.00;;;;5026291;28;20214;-74
2022/07/26 03:09:34;;;;;;;0.00;0.00;;;21.50;99.90;20.70;97015.00;;;;5014387;28;20223;-74
2022/07/26 03:12:03;;;;;;;0.00;0.00;;;21.40;99.90;20.80;97025.00;;;;5014769;28;20230;-74
2022/07/26 03:14:31;;;;;;;0.00;0.00;;;21.50;99.90;20.80;97023.00;;;;5030944;28;20214;-73
2022/07/26 03:16:59;;;;;;;0.00;0.00;;;21.40;99.90;20.80;97017.00;;;;5035424;28;20202;-74
2022/07/26 03:19:28;;;;;;;0.00;0.00;;;21.50;99.90;20.70;97007.00;;;;5034382;28;20219;-74
2022/07/26 03:21:56;;;;;;;0.00;0.00;;;21.30;99.90;20.60;97010.00;;;;5034813;28;20218;-73
2022/07/26 03:24:24;;;;;;;0.00;0.00;;;21.20;99.90;20.50;96999.00;;;;5026433;28;20208;-73
2022/07/26 03:27:07;;;;;;;0.00;0.00;;;21.10;99.90;20.50;96959.00;;;;5003017;28;20664;-73
2022/07/26 03:29:36;;;;;;;0.00;0.00;;;21.10;99.90;20.60;96970.00;;;;5034033;28;20573;-74
2022/07/26 03:32:04;;;;;;;0.00;0.00;;;21.20;99.90;20.60;96968.00;;;;5034055;28;20595;-74
2022/07/26 03:34:34;;;;;;;0.00;0.00;;;21.20;99.90;20.60;96990.00;;;;5033540;28;20669;-75
2022/07/26 03:37:02;;;;;;;0.00;0.00;;;21.30;99.90;20.50;96962.00;;;;5034661;28;20203;-75
2022/07/26 03:39:30;;;;;;;0.00;0.00;;;21.20;99.90;20.50;96965.00;;;;5033905;28;20227;-73
2022/07/26 03:41:58;;;;;;;0.00;0.00;;;21.20;99.90;20.30;96818.00;;;;5034308;28;20199;-74
2022/07/26 03:44:26;;;;;;;0.00;0.00;;;21.00;99.90;20.10;96834.00;;;;5033931;28;20210;-73
2022/07/26 03:46:54;;;;;;;0.00;0.00;;;20.90;99.90;20.00;96845.00;;;;5033882;28;20613;-75
2022/07/26 03:49:22;;;;;;;0.00;0.00;;;20.70;99.90;20.00;96846.00;;;;5033986;28;20215;-74
2022/07/26 03:51:51;;;;;;;0.00;0.00;;;20.70;99.90;20.00;96850.00;;;;5034242;28;20784;-74
2022/07/26 03:54:19;;;;;;;0.00;0.00;;;20.60;99.90;19.90;96856.00;;;;5034400;28;20187;-74
2022/07/26 03:56:46;;;;;;;0.00;0.00;;;20.60;99.90;19.70;96797.00;;;;5033790;28;20199;-73
2022/07/26 03:59:16;;;;;;;0.00;0.00;;;20.30;99.90;19.60;96794.00;;;;5033350;28;20690;-73
2022/07/26 04:01:46;;;;;;;0.00;0.00;;;20.20;99.90;19.50;96809.00;;;;5033620;28;20226;-74
2022/07/26 04:04:17;;;;;;;0.00;0.00;;;20.00;99.90;19.40;96820.00;;;;5033488;28;20191;-73
2022/07/26 04:06:47;;;;;;;0.00;0.00;;;20.00;99.90;19.30;96813.00;;;;5018774;28;20222;-73
2022/07/26 04:09:17;;;;;;;0.00;0.00;;;19.90;99.90;19.30;96834.00;;;;5013818;28;20202;-73
2022/07/26 04:11:46;;;;;;;0.00;0.00;;;19.80;99.90;19.30;96854.00;;;;5014420;28;20246;-74
2022/07/26 04:14:15;;;;;;;0.00;0.00;;;19.90;99.90;19.30;96811.00;;;;5022210;28;20199;-73
2022/07/26 04:16:42;;;;;;;0.00;0.00;;;19.90;99.90;19.20;96782.00;;;;5032927;28;20195;-74
2022/07/26 04:19:11;;;;;;;0.00;0.00;;;19.90;99.90;19.20;96809.00;;;;5033062;28;20217;-74
2022/07/26 04:21:39;;;;;;;0.00;0.00;;;19.80;99.90;19.20;96874.00;;;;5034342;28;20195;-74
2022/07/26 04:24:08;;;;;;;0.00;0.00;;;19.80;99.90;19.10;96780.00;;;;5026657;28;20199;-74
2022/07/26 04:26:38;;;;;;;0.00;0.00;;;19.70;99.90;19.10;96791.00;;;;5023160;28;20747;-74
2022/07/26 04:29:07;;;;;;;0.00;0.00;;;19.70;99.90;19.10;96812.00;;;;5022077;28;20227;-73
2022/07/26 04:31:36;;;;;;;0.00;0.00;;;19.60;99.90;18.90;96531.00;;;;5030959;28;20666;-74
2022/07/26 04:34:04;;;;;;;0.00;0.00;;;19.70;99.90;19.00;96698.00;;;;5024864;28;20210;-74
2022/07/26 04:36:33;;;;;;;0.00;0.00;;;19.70;99.90;19.00;96687.00;;;;5031878;28;20203;-74
2022/07/26 04:39:01;;;;;;;0.00;0.00;;;19.70;99.90;226.50;168199.00;;;;5031977;28;20206;-74
2022/07/26 04:41:29;;;;;;;0.00;0.00;;;19.60;99.90;226.50;231333.00;;;;5032133;28;20209;-73
2022/07/26 04:43:58;;;;;;;0.00;0.00;;;19.60;99.90;226.50;231333.00;;;;5033177;28;20199;-74
2022/07/26 04:46:26;;;;;;;0.00;0.00;;;19.60;99.90;226.50;231333.00;;;;5047883;28;20205;-74
2022/07/26 04:48:54;;;;;;;0.00;0.00;;;19.50;99.90;226.50;231333.00;;;;5040515;28;20253;-74
2022/07/26 04:51:22;;;;;;;0.00;0.00;;;19.50;99.90;226.50;231333.00;;;;5032693;28;20218;-74
2022/07/26 04:53:50;;;;;;;0.00;0.00;;;19.70;99.90;226.50;231333.00;;;;5032368;28;20211;-74
2022/07/26 04:56:18;;;;;;;0.00;0.00;;;19.60;99.90;226.50;231333.00;;;;5031120;28;20203;-75
2022/07/26 04:58:46;;;;;;;0.00;0.00;;;19.60;99.90;226.50;231333.00;;;;5013163;28;20195;-75
2022/07/26 05:01:16;;;;;;;0.00;0.00;;;19.70;99.90;226.50;231333.00;;;;5026394;28;20702;-74
2022/07/26 05:03:44;;;;;;;0.00;0.00;;;19.70;99.90;226.50;231333.00;;;;5012962;28;20200;-73
2022/07/26 05:06:12;;;;;;;0.03;0.03;;;19.80;99.90;226.50;231333.00;;;;5022222;28;20198;-74
2022/07/26 05:08:42;;;;;;;0.00;0.00;;;19.80;99.90;226.50;231333.00;;;;5024153;28;20662;-74
2022/07/26 05:11:10;;;;;;;0.00;0.00;;;19.70;99.90;226.50;231333.00;;;;5032172;28;20207;-73
2022/07/26 05:13:38;;;;;;;0.00;0.00;;;19.70;99.90;226.50;231333.00;;;;5032335;28;20219;-74
2022/07/26 05:16:06;;;;;;;0.00;0.00;;;19.70;99.90;226.50;231333.00;;;;5032421;28;20200;-71
2022/07/26 05:18:40;;;;;;;0.00;0.00;;;19.80;99.90;226.50;231333.00;;;;5012575;28;20216;-74
2022/07/26 05:21:16;;;;;;;0.00;0.00;;;19.80;99.90;226.50;231333.00;;;;5013332;28;20234;-74
2022/07/26 05:23:44;;;;;;;0.00;0.00;;;19.80;99.90;226.50;231333.00;;;;5012723;28;20227;-74
2022/07/26 05:26:12;;;;;;;0.00;0.00;;;19.80;99.90;226.50;231333.00;;;;5012341;28;20196;-74
2022/07/26 05:28:40;;;;;;;0.00;0.00;;;19.90;99.90;226.50;231333.00;;;;5020171;28;20199;-75
2022/07/26 05:31:08;;;;;;;0.00;0.00;;;19.90;99.90;226.50;231333.00;;;;5012311;28;20227;-74
2022/07/26 05:33:37;;;;;;;0.00;0.00;;;20.00;99.90;226.50;231333.00;;;;5012731;28;20226;-74
2022/07/26 05:36:07;;;;;;;0.00;0.00;;;20.10;99.90;226.50;167354.00;;;;5012843;28;20196;-74
2022/07/26 05:38:35;;;;;;;0.00;0.00;;;20.10;99.90;226.50;231333.00;;;;5012492;28;20671;-74
2022/07/26 05:41:04;;;;;;;0.00;0.00;;;20.20;99.90;226.50;231333.00;;;;5011425;28;20702;-73
2022/07/26 05:43:32;;;;;;;0.00;0.00;;;20.10;99.90;226.50;166906.00;;;;5012246;28;20203;-74
2022/07/26 05:46:10;;;;;;;0.00;0.00;;;20.10;99.90;226.50;167062.00;;;;5012251;28;20196;-73
2022/07/26 05:48:39;;;;;;;0.00;0.00;;;20.20;99.90;226.50;168062.00;;;;5012868;28;20951;-73
2022/07/26 05:51:09;;;;;;;0.00;0.00;;;20.20;99.90;226.50;231333.00;;;;5015676;28;20211;-73
2022/07/26 05:53:38;;;;;;;0.00;0.00;;;20.10;99.90;226.50;231333.00;;;;5022803;28;20234;-74
2022/07/26 05:56:07;;;;;;;0.00;0.00;;;20.10;99.90;226.50;231333.00;;;;5032683;28;20188;-74
2022/07/26 05:58:36;;;;;;;0.00;0.00;;;20.20;99.90;226.50;231333.00;;;;5016025;28;20575;-74
2022/07/26 06:01:04;;;;;;;0.00;0.00;;;20.30;99.90;226.50;231333.00;;;;5012741;28;20207;-74
2022/07/26 06:03:32;;;;;;;0.00;0.00;;;20.40;99.90;226.50;231333.00;;;;5012851;28;20202;-74
2022/07/26 06:06:00;;;;;;;0.00;0.00;;;20.30;99.90;226.50;231333.00;;;;5014378;28;20536;-74
2022/07/26 06:08:29;;;;;;;0.00;0.00;;;20.50;99.90;226.50;231333.00;;;;5020489;28;20209;-74
2022/07/26 06:10:58;;;;;;;0.00;0.00;;;20.60;99.90;226.50;231333.00;;;;5012200;28;20216;-73
2022/07/26 06:13:26;;;;;;;0.00;0.00;;;20.70;99.90;20.40;96887.00;;;;5011604;28;20231;-74
2022/07/26 06:15:54;;;;;;;0.00;0.00;;;20.80;99.90;20.50;96893.00;;;;5029164;28;20562;-74
2022/07/26 06:18:22;;;;;;;0.00;0.00;;;20.90;99.90;20.40;96904.00;;;;5030775;28;20198;-74
2022/07/26 06:20:50;;;;;;;0.00;0.00;;;20.90;99.90;20.40;96892.00;;;;5047070;28;20230;-74
2022/07/26 06:23:18;;;;;;;0.00;0.00;;;20.80;99.90;20.40;96886.00;;;;5031609;28;20658;-74
2022/07/26 06:26:03;;;;;;;0.00;0.00;;;20.90;99.90;20.40;96890.00;;;;5031975;28;20198;-74
2022/07/26 06:28:32;;;;;;;0.00;0.00;;;20.90;99.90;20.40;96893.00;;;;5031711;28;20706;-74
2022/07/26 06:31:00;;;;;;;0.00;0.00;;;20.90;99.90;20.50;96916.00;;;;5031837;28;20698;-74
2022/07/26 06:33:28;;;;;;;0.00;0.00;;;21.00;99.90;20.70;96881.00;;;;5031316;28;20238;-74
2022/07/26 06:35:56;;;;;;;0.00;0.00;;;21.10;99.90;20.80;96883.00;;;;5032027;28;20187;-73
2022/07/26 06:38:24;;;;;;;0.00;0.00;;;21.20;99.90;20.90;96876.00;;;;5023445;28;20265;-74
2022/07/26 06:40:52;;;;;;;0.00;0.00;;;21.30;99.90;20.90;96887.00;;;;5011673;28;20570;-73
2022/07/26 06:43:22;;;;;;;0.00;0.00;;;21.30;99.90;21.00;96875.00;;;;5012165;28;20215;-73
2022/07/26 06:45:50;;;;;;;0.00;0.00;;;21.40;99.90;21.10;96886.00;;;;5021792;28;20209;-74
2022/07/26 06:48:18;;;;;;;0.00;0.00;;;21.50;99.90;21.10;96871.00;;;;5031542;28;20195;-74
2022/07/26 06:50:47;;;;;;;0.00;0.00;;;21.60;99.90;21.30;96882.00;;;;5031880;28;20206;-74
2022/07/26 06:53:14;;;;;;;0.00;0.00;;;21.70;99.90;21.40;96877.00;;;;5033000;28;20817;-74
2022/07/26 06:55:43;;;;;;;0.00;0.00;;;21.90;99.90;21.60;96871.00;;;;5035693;28;20210;-73
2022/07/26 06:58:12;;;;;;;0.00;0.00;;;22.00;99.90;21.50;96870.00;;;;5035349;28;20283;-73
2022/07/26 07:00:42;;;;;;;0.00;0.00;;;22.00;99.90;21.70;96874.00;;;;5035754;28;20226;-74
2022/07/26 07:03:11;;;;;;;0.00;0.00;;;22.20;99.90;21.80;96871.00;;;;5035254;28;20207;-74
2022/07/26 07:05:39;;;;;;;0.00;0.00;;;22.20;99.90;21.90;96857.00;;;;5035391;28;20195;-73
2022/07/26 07:08:07;;;;;;;0.00;0.00;;;22.40;99.90;21.90;96852.00;;;;5034609;28;20198;-74
2022/07/26 07:10:37;;;;;;;0.00;0.00;;;22.30;99.90;22.00;96849.00;;;;5032769;28;20702;-74
2022/07/26 07:13:05;;;;;;;0.00;0.00;;;22.50;99.90;22.10;96856.00;;;;5024763;28;20199;-74
2022/07/26 07:15:33;;;;;;;0.00;0.00;;;22.50;99.90;22.10;96859.00;;;;5025993;28;20207;-74
2022/07/26 07:18:02;;;;;;;0.00;0.00;;;22.50;99.90;22.00;96828.00;;;;5019229;28;20208;-74
2022/07/26 07:20:33;;;;;;;0.00;0.00;;;22.50;99.90;22.00;96853.00;;;;5014127;28;20719;-75
2022/07/26 07:23:01;;;;;;;0.00;0.00;;;22.50;99.90;22.20;96845.00;;;;5015355;28;20564;-73
2022/07/26 07:25:29;;;;;;;0.00;0.00;;;22.60;99.90;22.20;96858.00;;;;5019996;28;20209;-73
2022/07/26 07:27:58;;;;;;;0.00;0.00;;;22.60;99.90;22.10;96863.00;;;;5034497;28;20624;-73
2022/07/26 07:30:27;;;;;;;0.00;0.00;;;22.50;99.90;22.10;96867.00;;;;5049640;28;20223;-74
2022/07/26 07:32:55;;;;;;;0.00;0.00;;;22.50;99.90;22.00;96859.00;;;;5034986;28;20533;-74
2022/07/26 07:35:25;;;;;;;0.00;0.00;;;22.40;99.90;22.00;96861.00;;;;5034153;28;20241;-74
2022/07/26 07:38:00;;;;;;;0.00;0.00;;;22.40;99.90;22.10;96849.00;;;;5034725;28;20187;-76
2022/07/26 07:40:29;;;;;;;0.00;0.00;;;22.50;99.90;22.30;96834.00;;;;5032766;28;20231;-73
2022/07/26 07:42:58;;;;;;;0.00;0.00;;;22.60;99.90;22.10;96852.00;;;;5034678;28;20192;-75
2022/07/26 07:45:25;;;;;;;0.00;0.00;;;22.50;99.90;22.00;96854.00;;;;5034283;28;20195;-74
2022/07/26 07:47:53;;;;;;;0.00;0.00;;;22.40;99.90;21.90;96859.00;;;;5035554;28;20210;-74
2022/07/26 07:50:21;;;;;;;0.00;0.00;;;22.20;99.90;22.10;96863.00;;;;5034460;28;20222;-73
2022/07/26 07:52:56;;;;;;;0.00;0.00;;;22.50;99.90;22.30;96872.00;;;;5034877;28;20658;-74
2022/07/26 07:55:24;;;;;;;0.00;0.00;;;22.70;99.90;22.30;96866.00;;;;5033571;28;20223;-73
2022/07/26 07:58:13;;;;;;;0.00;0.00;;;22.60;99.90;22.40;96862.00;;;;5034656;28;20206;-74
2022/07/26 08:00:41;;;;;;;0.00;0.00;;;22.70;99.90;22.40;96871.00;;;;5035065;28;20265;-74
2022/07/26 08:03:09;;;;;;;0.00;0.00;;;22.80;99.90;22.50;96871.00;;;;5034801;28;20199;-74
2022/07/26 08:05:38;;;;;;;0.00;0.00;;;22.80;99.90;22.20;96844.00;;;;5033595;28;20207;-74
2022/07/26 08:08:09;;;;;;;0.00;0.00;;;22.60;99.90;22.40;96849.00;;;;5034378;28;20198;-73
2022/07/26 08:10:37;;;;;;;0.00;0.00;;;22.70;99.90;22.60;96854.00;;;;5034279;28;20226;-74
2022/07/26 08:13:19;;;;;;;0.00;0.00;;;22.90;99.90;22.70;96851.00;;;;5036011;28;20187;-74
2022/07/26 08:15:49;;;;;;;0.00;0.00;;;23.10;99.90;22.90;96849.00;;;;5040013;28;20191;-74
2022/07/26 08:18:17;;;;;;;0.00;0.00;;;23.20;99.90;23.20;96851.00;;;;5034161;28;20391;-74
2022/07/26 08:20:51;;;;;;;0.00;0.00;;;23.50;99.90;23.20;96859.00;;;;5034082;28;20558;-74
2022/07/26 08:23:22;;;;;;;0.00;0.00;;;23.50;99.90;23.30;96857.00;;;;5034749;28;20191;-75
2022/07/26 08:25:50;;;;;;;0.00;0.00;;;23.60;99.90;23.60;96845.00;;;;5034233;28;20195;-74
2022/07/26 08:28:33;;;;;;;0.00;0.00;;;23.90;99.90;23.80;96847.00;;;;5033455;28;20278;-74
2022/07/26 08:31:21;;;;;;;0.00;0.00;;;24.00;99.90;23.80;96860.00;;;;5033508;28;20215;-74
2022/07/26 08:33:49;;;;;;;0.00;0.00;;;24.10;99.90;23.90;96870.00;;;;5033958;28;20554;-74
2022/07/26 08:36:17;;;;;;;0.00;0.00;;;24.30;99.90;24.00;96856.00;;;;5034175;28;20183;-74
2022/07/26 08:38:47;;;;;;;0.00;0.00;;;24.20;99.90;24.20;96834.00;;;;5034547;28;20190;-74
2022/07/26 08:41:16;;;;;;;0.00;0.00;;;24.50;99.90;24.20;96863.00;;;;5034317;28;20306;-74
2022/07/26 08:43:44;;;;;;;0.00;0.00;;;24.50;99.90;24.00;96856.00;;;;5034296;28;20188;-73
2022/07/26 08:46:22;;;;;;;0.00;0.00;;;24.30;99.90;23.80;96863.00;;;;5027673;28;20198;-74
2022/07/26 08:48:53;;;;;;;0.00;0.00;;;24.20;99.90;23.60;96869.00;;;;5020714;28;20205;-74
2022/07/26 08:51:24;;;;;;;0.00;0.00;;;24.00;99.90;23.50;96873.00;;;;5035730;28;20585;-74
2022/07/26 08:53:57;;;;;;;0.00;0.00;;;23.90;99.90;23.50;96879.00;;;;5026534;28;20208;-73
2022/07/26 08:56:33;;;;;;;0.00;0.00;;;24.00;99.90;23.70;96871.00;;;;5015810;28;20195;-74
2022/07/26 08:59:11;;;;;;;0.00;0.00;;;24.10;99.90;23.60;96871.00;;;;5017332;28;20561;-73
2022/07/26 09:01:52;;;;;;;0.00;0.00;;;24.10;99.90;23.70;96867.00;;;;5017478;28;20242;-74
2022/07/26 09:04:24;;;;;;;0.00;0.00;;;24.10;99.90;23.80;96893.00;;;;5018192;28;20206;-74
2022/07/26 09:07:06;;;;;;;0.00;0.00;;;24.10;99.90;23.80;96870.00;;;;5017653;28;20222;-71
2022/07/26 09:09:39;;;;;;;0.00;0.00;;;24.10;99.70;24.10;96872.00;;;;5017670;28;20218;-74
2022/07/26 09:12:16;;;;;;;0.00;0.00;;;24.40;99.90;24.40;96845.00;;;;5018031;28;20204;-73
2022/07/26 09:14:46;;;;;;;0.00;0.00;;;24.70;99.80;24.60;96871.00;;;;5018150;28;20223;-74
2022/07/26 09:17:18;;;;;;;0.00;0.00;;;24.80;98.90;24.20;96879.00;;;;5016080;28;20203;-75
2022/07/26 09:20:04;;;;;;;0.00;0.00;;;24.50;98.90;23.60;96870.00;;;;5013254;28;20282;-73
2022/07/26 09:22:32;;;;;;;0.00;0.00;;;24.10;99.30;23.90;96862.00;;;;5012907;28;20675;-75
2022/07/26 09:25:01;;;;;;;0.00;0.00;;;24.20;99.10;24.30;96868.00;;;;5013090;28;20188;-73
2022/07/26 09:27:35;;;;;;;0.00;0.00;;;24.50;99.30;24.60;96899.00;;;;5012170;28;20215;-74
2022/07/26 09:30:08;;;;;;;0.00;0.00;;;24.80;98.00;24.40;96867.00;;;;5013235;28;20342;-73
2022/07/26 09:32:36;;;;;;;0.00;0.00;;;24.70;98.30;24.30;96870.00;;;;5012890;28;20215;-73
2022/07/26 09:35:14;;;;;;;0.00;0.00;;;24.60;98.10;24.20;96885.00;;;;5012559;28;20234;-73
2022/07/26 09:38:12;;;;;;;0.00;0.00;;;24.60;98.20;24.00;96885.00;;;;5012217;28;20227;-74
2022/07/26 09:40:42;;;;;;;0.00;0.00;;;24.30;98.20;24.40;96886.00;;;;5012602;28;20219;-73
2022/07/26 09:43:18;;;;;;;0.00;0.00;;;24.70;98.20;24.50;96886.00;;;;5012817;28;20195;-72
2022/07/26 09:46:05;;;;;;;0.00;0.00;;;24.70;98.00;24.30;96881.00;;;;5027940;28;20721;-74
2022/07/26 09:48:36;;;;;;;0.00;0.00;;;24.50;97.60;24.50;96884.00;;;;5012091;28;20759;-74
2022/07/26 09:51:43;;;;;;;0.00;0.00;;;24.80;97.60;24.20;96864.00;;;;5011856;28;20212;-74
2022/07/26 09:54:19;;;;;;;0.00;0.00;;;24.60;97.80;24.20;96904.00;;;;5011831;28;20671;-73
2022/07/26 09:56:51;;;;;;;0.00;0.00;;;24.50;97.80;24.30;96845.00;;;;5019178;28;20202;-73
2022/07/26 09:59:23;;;;;;;0.00;0.00;;;24.60;96.90;24.50;96916.00;;;;5014756;28;20208;-76
2022/07/26 10:01:56;;;;;;;0.00;0.00;;;24.80;96.80;24.00;96862.00;;;;5012085;28;20258;-74
2022/07/26 10:04:26;;;;;;;0.00;0.00;;;24.60;96.50;23.90;96869.00;;;;5018197;28;20191;-73
2022/07/26 10:06:56;;;;;;;0.00;0.00;;;24.40;96.70;24.10;96906.00;;;;5031640;28;20191;-74
2022/07/26 10:09:29;;;;;;;0.00;0.00;;;24.40;97.00;24.10;96891.00;;;;5031348;28;20220;-74
2022/07/26 10:12:02;;;;;;;0.00;0.00;;;24.40;97.20;24.20;96881.00;;;;5032085;28;20636;-74
2022/07/26 10:14:45;;;;;;;0.00;0.00;;;24.50;97.00;24.60;96903.00;;;;5031736;28;20206;-74
2022/07/26 10:17:46;;;;;;;0.00;0.00;;;24.90;96.60;24.90;96894.00;;;;5031629;28;20213;-73
2022/07/26 10:20:45;;;;;;;0.00;0.00;;;25.10;96.60;24.60;96890.00;;;;4990362;28;20689;-74
2022/07/26 10:23:41;;;;;;;0.00;0.00;;;24.80;96.30;24.60;96887.00;;;;4966290;28;20204;-73
2022/07/26 10:26:21;;;;;;;0.00;0.00;;;24.80;96.30;24.90;96888.00;;;;5025546;28;20714;-74
2022/07/26 10:28:51;;;;;;;0.00;0.00;;;25.20;95.40;24.90;96895.00;;;;5034499;28;20274;-73
2022/07/26 10:31:30;;;;;;;0.00;0.00;;;25.20;95.10;24.70;96882.00;;;;5035998;28;20580;-71
2022/07/26 10:34:01;;;;;;;0.00;0.00;;;25.00;94.60;24.70;96891.00;;;;5035267;28;20261;-72
2022/07/26 10:36:36;;;;;;;0.00;0.00;;;25.00;94.90;24.50;96902.00;;;;5035299;28;20292;-71
2022/07/26 10:39:11;;;;;;;0.00;0.00;;;24.80;95.30;24.40;96883.00;;;;5036931;28;20191;-71
2022/07/26 10:41:44;;;;;;;0.00;0.00;;;24.80;95.60;24.70;96902.00;;;;5037278;28;20194;-72
2022/07/26 10:44:23;;;;;;;0.00;0.00;;;25.10;95.10;25.00;96900.00;;;;5034745;28;20199;-71
2022/07/26 10:47:15;;;;;;;0.00;0.00;;;25.30;93.90;25.20;96885.00;;;;5035814;28;20692;-71
2022/07/26 10:49:56;;;;;;;0.00;0.00;;;25.50;94.00;25.80;96906.00;;;;5035201;28;20239;-71
2022/07/26 10:52:28;;;;;;;0.00;0.00;;;25.90;94.30;26.00;96904.00;;;;5035064;28;20206;-73
2022/07/26 10:55:17;;;;;;;0.00;0.00;;;26.20;93.10;26.30;96891.00;;;;5034745;28;20728;-72
2022/07/26 10:57:48;;;;;;;0.00;0.00;;;26.50;92.30;26.00;96912.00;;;;5034913;28;20207;-71
2022/07/26 11:00:22;;;;;;;0.00;0.00;;;26.30;91.90;25.50;96896.00;;;;5034821;28;20575;-72
2022/07/26 11:02:57;;;;;;;0.00;0.00;;;25.90;91.80;24.70;96898.00;;;;5035239;28;20210;-71
2022/07/26 11:05:30;;;;;;;0.00;0.00;;;25.50;92.00;24.70;96899.00;;;;5034653;28;20226;-72